Time;durP1;ratioP1;P1;durP2;ratioP2;P2;SDS_P1;SDS_P2;PMS_P1;PMS_P2;Temp;Humidity;BMP_temperature;BMP_pressure;BME280_temperature;BME280_humidity;BME280_pressure;Samples;Min_cycle;Max_cycle;Signal;HPM_P1;HPM_P2
2023/02/13 00:02:10;;;;;;;19.47;12.03;;;;;;;;;;5058205;28;20185;-77
2023/02/13 00:04:36;;;;;;;15.48;10.45;;;;;;;;;;5056589;28;20403;-76
2023/02/13 00:07:02;;;;;;;17.33;12.20;;;;;;;;;;5056831;28;20174;-77
2023/02/13 00:09:28;;;;;;;18.50;11.75;;;;;;;;;;5056315;28;20937;-77
2023/02/13 00:11:54;;;;;;;18.95;11.63;;;;;;;;;;5057989;28;20538;-77
2023/02/13 00:14:20;;;;;;;21.60;13.73;;;;;;;;;;5055947;28;20229;-76
2023/02/13 00:16:46;;;;;;;21.47;14.20;;;;;;;;;;5057205;28;20412;-77
2023/02/13 00:19:12;;;;;;;23.90;13.97;;;;;;;;;;5057437;28;20466;-77
2023/02/13 00:21:38;;;;;;;20.10;13.17;;;;;;;;;;5057458;28;20813;-77
2023/02/13 00:24:04;;;;;;;22.17;14.20;;;;;;;;;;5056550;28;20424;-77
2023/02/13 00:26:30;;;;;;;19.88;12.85;;;;;;;;;;5055975;28;20420;-78
2023/02/13 00:28:56;;;;;;;20.57;12.80;;;;;;;;;;5057408;28;20220;-77
2023/02/13 00:31:22;;;;;;;20.58;13.60;;;;;;;;;;5057875;28;20416;-77
2023/02/13 00:33:48;;;;;;;19.70;12.67;;;;;;;;;;5057560;28;20185;-77
2023/02/13 00:36:19;;;;;;;21.25;14.70;;;;;;;;;;5057807;28;20388;-77
2023/02/13 00:38:45;;;;;;;21.85;13.93;;;;;;;;;;5057154;28;20178;-77
2023/02/13 00:41:12;;;;;;;25.60;15.20;;;;;;;;;;5057371;28;20240;-77
2023/02/13 00:43:38;;;;;;;18.80;12.93;;;;;;;;;;5057243;28;20184;-77
2023/02/13 00:46:04;;;;;;;23.27;14.77;;;;;;;;;;5057072;28;20166;-77
2023/02/13 00:48:31;;;;;;;27.52;16.10;;;;;;;;;;5056732;28;20462;-77
2023/02/13 00:50:57;;;;;;;23.17;14.93;;;;;;;;;;5057231;28;20185;-77
2023/02/13 00:53:24;;;;;;;22.65;14.75;;;;;;;;;;5056976;28;20219;-77
2023/02/13 00:55:51;;;;;;;22.67;14.20;;;;;;;;;;5057025;28;20170;-76
2023/02/13 00:58:17;;;;;;;21.60;14.45;;;;;;;;;;5056750;28;20628;-76
2023/02/13 01:00:46;;;;;;;22.73;14.35;;;;;;;;;;5056585;28;20594;-77
2023/02/13 01:03:11;;;;;;;20.00;14.48;;;;;;;;;;5054843;28;20279;-77
2023/02/13 01:05:37;;;;;;;22.17;14.93;;;;;;;;;;5055678;28;20223;-76
2023/02/13 01:08:04;;;;;;;22.60;14.20;;;;;;;;;;5056468;28;20459;-77
2023/02/13 01:10:30;;;;;;;20.00;14.20;;;;;;;;;;5055150;28;20535;-79
2023/02/13 01:12:56;;;;;;;22.70;14.07;;;;;;;;;;5056532;28;20205;-77
2023/02/13 01:15:22;;;;;;;24.95;14.27;;;;;;;;;;5054961;28;20480;-77
2023/02/13 01:17:48;;;;;;;21.85;13.95;;;;;;;;;;5056368;28;20180;-77
2023/02/13 01:20:14;;;;;;;22.83;15.17;;;;;;;;;;5056918;28;20727;-77
2023/02/13 01:22:43;;;;;;;20.98;14.25;;;;;;;;;;5056146;28;20401;-77
2023/02/13 01:25:09;;;;;;;23.10;12.98;;;;;;;;;;5055119;28;20181;-77
2023/02/13 01:27:37;;;;;;;23.23;13.80;;;;;;;;;;5055210;28;20266;-77
2023/02/13 01:30:03;;;;;;;22.67;13.82;;;;;;;;;;5056583;28;20208;-77
2023/02/13 01:32:29;;;;;;;20.40;13.45;;;;;;;;;;5054802;28;20251;-77
2023/02/13 01:34:55;;;;;;;21.73;13.82;;;;;;;;;;5054776;28;20581;-77
2023/02/13 01:37:21;;;;;;;19.97;11.97;;;;;;;;;;5056476;28;20189;-76
2023/02/13 01:39:48;;;;;;;23.60;12.83;;;;;;;;;;5056068;28;20937;-77
2023/02/13 01:42:16;;;;;;;21.55;14.15;;;;;;;;;;5056276;28;20481;-77
2023/02/13 01:44:46;;;;;;;17.05;11.98;;;;;;;;;;5054699;28;20212;-77
2023/02/13 01:47:13;;;;;;;23.88;13.18;;;;;;;;;;5054542;28;20235;-77
2023/02/13 01:49:40;;;;;;;22.88;14.10;;;;;;;;;;5054172;28;20218;-77
2023/02/13 01:52:06;;;;;;;20.50;13.73;;;;;;;;;;5055989;28;20206;-77
2023/02/13 01:54:33;;;;;;;20.52;13.05;;;;;;;;;;5054396;28;20213;-79
2023/02/13 01:57:09;;;;;;;20.10;13.20;;;;;;;;;;5056296;28;20196;-76
2023/02/13 01:59:44;;;;;;;19.20;13.13;;;;;;;;;;5055910;28;20296;-76
2023/02/13 02:02:10;;;;;;;19.17;12.98;;;;;;;;;;5055947;28;20166;-77
2023/02/13 02:04:37;;;;;;;18.65;12.18;;;;;;;;;;5055742;28;20240;-77
2023/02/13 02:07:08;;;;;;;18.65;13.07;;;;;;;;;;5056027;28;20182;-77
2023/02/13 02:09:37;;;;;;;17.88;12.20;;;;;;;;;;5055472;28;20212;-79
2023/02/13 02:12:06;;;;;;;18.70;12.80;;;;;;;;;;5055530;28;20599;-77
2023/02/13 02:14:33;;;;;;;20.30;13.45;;;;;;;;;;5054274;28;20300;-77
2023/02/13 02:16:59;;;;;;;20.90;13.00;;;;;;;;;;5055859;28;20172;-76
2023/02/13 02:19:49;;;;;;;21.00;14.30;;;;;;;;;;5055754;28;20182;-77
2023/02/13 02:22:20;;;;;;;23.05;13.23;;;;;;;;;;5055229;28;20887;-77
2023/02/13 02:24:46;;;;;;;22.48;13.40;;;;;;;;;;5055251;28;20174;-77
2023/02/13 02:27:12;;;;;;;19.80;13.07;;;;;;;;;;5055387;28;20227;-77
2023/02/13 02:29:38;;;;;;;18.83;13.80;;;;;;;;;;5055874;28;20546;-77
2023/02/13 02:32:18;;;;;;;20.83;12.63;;;;;;;;;;5055759;28;20404;-77
2023/02/13 02:34:47;;;;;;;21.02;12.57;;;;;;;;;;5055174;28;20406;-77
2023/02/13 02:37:18;;;;;;;16.88;11.85;;;;;;;;;;5054345;28;20533;-77
2023/02/13 02:40:00;;;;;;;17.73;12.07;;;;;;;;;;5058386;28;20184;-77
2023/02/13 02:42:37;;;;;;;20.70;13.02;;;;;;;;;;5059974;28;20184;-77
2023/02/13 02:45:08;;;;;;;18.60;10.70;;;;;;;;;;5059979;28;20192;-77
2023/02/13 02:51:00;;;;;;;18.17;12.55;;;;;;;;;;5059364;28;20253;-78
2023/02/13 02:53:33;;;;;;;22.42;12.75;;;;;;;;;;5058206;28;20635;-77
2023/02/13 02:56:13;;;;;;;21.17;12.95;;;;;;;;;;5059135;28;20173;-77
2023/02/13 03:07:04;;;;;;;19.15;12.35;;;;;;;;;;5059410;28;20231;-77
2023/02/13 03:15:04;;;;;;;17.27;11.77;;;;;;;;;;5059389;28;20233;-77
2023/02/13 03:23:31;;;;;;;18.38;12.20;;;;;;;;;;5059228;28;20192;-76
2023/02/13 03:26:00;;;;;;;18.77;12.18;;;;;;;;;;5059110;28;20185;-77
2023/02/13 03:31:39;;;;;;;21.30;12.77;;;;;;;;;;5059003;28;20185;-77
2023/02/13 03:34:08;;;;;;;16.20;12.30;;;;;;;;;;5059198;28;20177;-77
2023/02/13 03:39:35;;;;;;;16.63;11.30;;;;;;;;;;5058855;28;20206;-77
2023/02/13 03:42:03;;;;;;;18.30;13.32;;;;;;;;;;5058715;28;20157;-77
2023/02/13 03:44:37;;;;;;;17.60;12.40;;;;;;;;;;5058636;28;20278;-77
2023/02/13 03:47:05;;;;;;;21.05;13.23;;;;;;;;;;5058491;28;20177;-77
2023/02/13 03:52:25;;;;;;;20.65;13.63;;;;;;;;;;5058458;28;20264;-77
2023/02/13 04:00:50;;;;;;;22.10;13.48;;;;;;;;;;5058619;28;20181;-78
2023/02/13 04:03:25;;;;;;;21.95;14.55;;;;;;;;;;5058345;28;20181;-77
2023/02/13 04:05:55;;;;;;;23.67;14.50;;;;;;;;;;5058099;28;20621;-77
2023/02/13 04:08:21;;;;;;;21.77;14.52;;;;;;;;;;5056433;28;20212;-77
2023/02/13 04:10:56;;;;;;;21.30;13.93;;;;;;;;;;5057523;28;20213;-77
2023/02/13 04:13:27;;;;;;;24.25;15.18;;;;;;;;;;5056721;28;20220;-77
2023/02/13 04:15:57;;;;;;;23.95;15.18;;;;;;;;;;5057695;28;20284;-77
2023/02/13 04:18:25;;;;;;;20.75;14.00;;;;;;;;;;5056868;28;20246;-76
2023/02/13 04:20:51;;;;;;;20.98;14.02;;;;;;;;;;5056153;28;20191;-77
2023/02/13 04:23:17;;;;;;;24.40;16.30;;;;;;;;;;5058177;28;20628;-77
2023/02/13 04:25:45;;;;;;;27.27;16.45;;;;;;;;;;5057225;28;20180;-77
2023/02/13 04:28:11;;;;;;;23.48;16.40;;;;;;;;;;5057454;28;20494;-77
2023/02/13 04:30:37;;;;;;;29.83;16.87;;;;;;;;;;5057534;28;20192;-76
2023/02/13 04:33:03;;;;;;;29.73;17.63;;;;;;;;;;5057416;28;20469;-77
2023/02/13 04:35:29;;;;;;;24.60;16.33;;;;;;;;;;5057664;28;20184;-77
2023/02/13 04:37:55;;;;;;;30.20;17.07;;;;;;;;;;5057469;28;20415;-77
2023/02/13 04:40:21;;;;;;;27.55;17.77;;;;;;;;;;5057836;28;20407;-76
2023/02/13 04:42:47;;;;;;;28.13;17.25;;;;;;;;;;5057222;28;20180;-77
2023/02/13 04:45:14;;;;;;;25.20;17.50;;;;;;;;;;5056060;28;20188;-77
2023/02/13 04:47:40;;;;;;;27.77;17.33;;;;;;;;;;5056971;28;20660;-77
2023/02/13 04:50:06;;;;;;;26.88;16.52;;;;;;;;;;5056990;28;20221;-77
2023/02/13 04:52:32;;;;;;;28.23;17.45;;;;;;;;;;5055862;28;20656;-77
2023/02/13 04:54:58;;;;;;;26.45;16.35;;;;;;;;;;5055985;28;20245;-77
2023/02/13 04:57:24;;;;;;;25.40;15.60;;;;;;;;;;5055926;28;20259;-77
2023/02/13 04:59:50;;;;;;;26.25;16.42;;;;;;;;;;5056137;28;20402;-77
2023/02/13 05:02:16;;;;;;;24.67;16.60;;;;;;;;;;5057197;28;20177;-77
2023/02/13 05:04:42;;;;;;;25.17;16.60;;;;;;;;;;5055999;28;20463;-77
2023/02/13 05:07:08;;;;;;;31.57;19.10;;;;;;;;;;5056684;28;20436;-77
2023/02/13 05:09:34;;;;;;;26.60;18.10;;;;;;;;;;5057847;28;20485;-77
2023/02/13 05:12:00;;;;;;;30.03;17.97;;;;;;;;;;5056365;28;20405;-77
2023/02/13 05:14:26;;;;;;;31.85;19.02;;;;;;;;;;5057685;28;20475;-77
2023/02/13 05:16:52;;;;;;;34.28;20.10;;;;;;;;;;5057408;28;20170;-76
2023/02/13 05:19:18;;;;;;;29.30;19.40;;;;;;;;;;5056576;28;20655;-77
2023/02/13 05:24:29;;;;;;;30.25;17.73;;;;;;;;;;5057443;28;20399;-77
2023/02/13 05:26:55;;;;;;;28.73;16.55;;;;;;;;;;5056772;28;20631;-77
2023/02/13 05:29:24;;;;;;;30.60;18.10;;;;;;;;;;5057144;28;20215;-77
2023/02/13 05:31:51;;;;;;;31.50;18.85;;;;;;;;;;5056628;28;20408;-76
2023/02/13 05:34:18;;;;;;;25.80;16.33;;;;;;;;;;5055483;28;20223;-77
2023/02/13 05:36:44;;;;;;;30.13;16.27;;;;;;;;;;5057456;28;20528;-77
2023/02/13 05:39:10;;;;;;;28.40;16.50;;;;;;;;;;5056791;28;20185;-77
2023/02/13 05:41:36;;;;;;;34.58;21.48;;;;;;;;;;5057062;28;20412;-77
2023/02/13 05:44:02;;;;;;;28.85;16.25;;;;;;;;;;5056311;28;20224;-77
2023/02/13 05:46:28;;;;;;;34.77;19.30;;;;;;;;;;5056545;28;20625;-77
2023/02/13 05:48:54;;;;;;;31.73;17.97;;;;;;;;;;5038995;28;20558;-77
2023/02/13 05:51:20;;;;;;;28.67;17.07;;;;;;;;;;5057205;28;20420;-77
2023/02/13 05:53:46;;;;;;;29.52;17.95;;;;;;;;;;5056923;28;20423;-77
2023/02/13 05:56:12;;;;;;;27.95;17.45;;;;;;;;;;5056242;28;20641;-76
2023/02/13 05:58:38;;;;;;;33.43;18.97;;;;;;;;;;5056959;28;20179;-77
2023/02/13 06:01:04;;;;;;;26.40;18.23;;;;;;;;;;5057351;28;20756;-77
2023/02/13 06:03:30;;;;;;;29.42;18.23;;;;;;;;;;5056161;28;20210;-77
2023/02/13 06:05:57;;;;;;;32.42;17.00;;;;;;;;;;5056553;28;20177;-77
2023/02/13 06:08:23;;;;;;;24.40;16.42;;;;;;;;;;5057246;28;20200;-77
2023/02/13 06:10:49;;;;;;;25.60;16.27;;;;;;;;;;5054433;28;20181;-77
2023/02/13 06:13:15;;;;;;;29.02;17.00;;;;;;;;;;5055097;28;20181;-77
2023/02/13 06:15:41;;;;;;;29.30;17.58;;;;;;;;;;5056325;28;20237;-76
2023/02/13 06:18:08;;;;;;;27.83;17.27;;;;;;;;;;5055478;28;20208;-77
2023/02/13 06:20:34;;;;;;;29.83;17.05;;;;;;;;;;5056219;28;20749;-77
2023/02/13 06:23:00;;;;;;;26.63;15.20;;;;;;;;;;5056259;28;20174;-77
2023/02/13 06:25:26;;;;;;;32.47;18.65;;;;;;;;;;5056637;28;20573;-76
2023/02/13 06:27:53;;;;;;;31.13;17.35;;;;;;;;;;5055725;28;20530;-77
2023/02/13 06:30:19;;;;;;;36.53;19.10;;;;;;;;;;5056066;28;20178;-77
2023/02/13 06:32:48;;;;;;;30.88;17.88;;;;;;;;;;5054578;28;20182;-77
2023/02/13 06:35:15;;;;;;;30.80;18.50;;;;;;;;;;5054771;28;20178;-77
2023/02/13 06:37:44;;;;;;;32.13;18.90;;;;;;;;;;5056412;28;20178;-77
2023/02/13 06:40:11;;;;;;;28.55;16.63;;;;;;;;;;5055962;28;20585;-77
2023/02/13 06:42:37;;;;;;;30.60;18.45;;;;;;;;;;5057021;28;20173;-77
2023/02/13 06:45:03;;;;;;;27.10;17.70;;;;;;;;;;5055660;28;20679;-77
2023/02/13 06:47:29;;;;;;;32.58;18.10;;;;;;;;;;5056507;28;20416;-77
2023/02/13 06:49:55;;;;;;;29.52;17.58;;;;;;;;;;5056070;28;20209;-76
2023/02/13 06:52:21;;;;;;;33.07;17.40;;;;;;;;;;5056190;28;20636;-76
2023/02/13 06:54:47;;;;;;;32.77;18.67;;;;;;;;;;5056589;28;20418;-77
2023/02/13 06:57:13;;;;;;;24.30;15.53;;;;;;;;;;5055645;28;20443;-77
2023/02/13 06:59:39;;;;;;;27.80;17.33;;;;;;;;;;5054562;28;20415;-76
2023/02/13 07:02:05;;;;;;;25.60;15.73;;;;;;;;;;5056010;28;20432;-77
2023/02/13 07:04:31;;;;;;;21.60;15.07;;;;;;;;;;5054810;28;20516;-76
2023/02/13 07:06:57;;;;;;;28.03;16.00;;;;;;;;;;5055674;28;20412;-76
2023/02/13 07:09:23;;;;;;;27.00;17.42;;;;;;;;;;5054978;28;20555;-77
2023/02/13 07:11:50;;;;;;;31.13;17.40;;;;;;;;;;5056057;28;20629;-77
2023/02/13 07:14:16;;;;;;;32.03;18.08;;;;;;;;;;5055267;28;20240;-77
2023/02/13 07:16:42;;;;;;;29.52;18.58;;;;;;;;;;5055446;28;20185;-77
2023/02/13 07:19:08;;;;;;;30.23;17.95;;;;;;;;;;5055458;28;20185;-77
2023/02/13 07:21:34;;;;;;;30.13;18.58;;;;;;;;;;5056105;28;20497;-77
2023/02/13 07:24:00;;;;;;;26.58;16.42;;;;;;;;;;5054090;28;20205;-77
2023/02/13 07:26:26;;;;;;;28.83;17.80;;;;;;;;;;5058228;28;20189;-77
2023/02/13 07:28:52;;;;;;;28.67;18.05;;;;;;;;;;5059710;28;20201;-78
2023/02/13 07:31:18;;;;;;;27.55;16.55;;;;;;;;;;5060133;28;20577;-77
2023/02/13 07:33:48;;;;;;;25.38;17.00;;;;;;;;;;5060069;28;20181;-76
2023/02/13 07:36:14;;;;;;;27.80;16.60;;;;;;;;;;5059761;28;20177;-76
2023/02/13 07:38:40;;;;;;;26.53;16.93;;;;;;;;;;5059519;28;20630;-77
2023/02/13 07:41:06;;;;;;;29.80;17.57;;;;;;;;;;5059400;28;20481;-76
2023/02/13 07:43:32;;;;;;;27.13;18.67;;;;;;;;;;5058090;28;20424;-77
2023/02/13 07:45:59;;;;;;;31.63;19.70;;;;;;;;;;5058033;28;20895;-76
2023/02/13 07:48:28;;;;;;;29.83;18.08;;;;;;;;;;5058320;28;20709;-77
2023/02/13 07:50:54;;;;;;;29.85;18.33;;;;;;;;;;5059133;28;20268;-81
2023/02/13 07:53:21;;;;;;;29.25;18.25;;;;;;;;;;5058443;28;20170;-79
2023/02/13 07:55:47;;;;;;;28.55;18.60;;;;;;;;;;5058380;28;20192;-79
2023/02/13 07:58:13;;;;;;;30.40;18.30;;;;;;;;;;5056043;28;20643;-80
2023/02/13 08:00:39;;;;;;;30.33;17.60;;;;;;;;;;5058268;28;20181;-80
2023/02/13 08:03:05;;;;;;;28.50;18.57;;;;;;;;;;5056862;28;20180;-79
2023/02/13 08:05:32;;;;;;;29.53;16.73;;;;;;;;;;5058192;28;20407;-80
2023/02/13 08:07:58;;;;;;;31.40;18.10;;;;;;;;;;5057311;28;20446;-80
2023/02/13 08:13:09;;;;;;;27.15;18.60;;;;;;;;;;5057336;28;20265;-79
2023/02/13 08:15:35;;;;;;;31.42;19.75;;;;;;;;;;5057251;28;20715;-80
2023/02/13 08:18:01;;;;;;;28.33;19.37;;;;;;;;;;5057340;28;20185;-79
2023/02/13 08:20:27;;;;;;;31.30;18.90;;;;;;;;;;5056209;28;20407;-79
2023/02/13 08:22:53;;;;;;;28.05;17.80;;;;;;;;;;5056131;28;20178;-79
2023/02/13 08:25:19;;;;;;;29.80;18.27;;;;;;;;;;5057424;28;20529;-80
2023/02/13 08:27:45;;;;;;;31.17;17.83;;;;;;;;;;5056075;28;20210;-80
2023/02/13 08:30:13;;;;;;;29.48;18.77;;;;;;;;;;5056157;28;20296;-79
2023/02/13 08:32:39;;;;;;;33.22;20.02;;;;;;;;;;5057489;28;20185;-79
2023/02/13 08:35:05;;;;;;;31.47;18.93;;;;;;;;;;5057031;28;20271;-79
2023/02/13 08:37:31;;;;;;;27.48;18.60;;;;;;;;;;5056714;28;20487;-79
2023/02/13 08:39:57;;;;;;;28.05;19.20;;;;;;;;;;5055955;28;20181;-81
2023/02/13 08:42:23;;;;;;;25.30;18.53;;;;;;;;;;5057684;28;20273;-79
2023/02/13 08:44:49;;;;;;;27.00;17.57;;;;;;;;;;5056458;28;20414;-79
2023/02/13 08:47:15;;;;;;;25.27;17.25;;;;;;;;;;5056973;28;20429;-80
2023/02/13 08:49:42;;;;;;;23.52;16.45;;;;;;;;;;5055933;28;20668;-79
2023/02/13 08:52:08;;;;;;;27.08;16.33;;;;;;;;;;5057112;28;20245;-79
2023/02/13 08:54:35;;;;;;;27.83;17.17;;;;;;;;;;5056793;28;20174;-79
2023/02/13 08:57:01;;;;;;;24.42;16.35;;;;;;;;;;5055507;28;20180;-79
2023/02/13 08:59:27;;;;;;;25.17;17.83;;;;;;;;;;5057379;28;20190;-79
2023/02/13 09:01:53;;;;;;;20.00;15.13;;;;;;;;;;5055356;28;20783;-79
2023/02/13 09:04:19;;;;;;;25.57;15.80;;;;;;;;;;5039241;28;20458;-79
2023/02/13 09:06:45;;;;;;;26.53;17.23;;;;;;;;;;5056600;28;20495;-79
2023/02/13 09:09:11;;;;;;;22.40;15.23;;;;;;;;;;5055298;28;20464;-79
2023/02/13 09:11:37;;;;;;;20.92;14.05;;;;;;;;;;5055315;28;20748;-79
2023/02/13 09:14:03;;;;;;;18.60;13.10;;;;;;;;;;5054986;28;20236;-79
2023/02/13 09:16:29;;;;;;;20.48;13.95;;;;;;;;;;5055202;28;20419;-79
2023/02/13 09:18:55;;;;;;;20.92;14.05;;;;;;;;;;5056708;28;20185;-79
2023/02/13 09:21:22;;;;;;;17.07;12.80;;;;;;;;;;5038422;28;20173;-79
2023/02/13 09:23:49;;;;;;;19.92;14.93;;;;;;;;;;5056390;28;20403;-79
2023/02/13 09:26:16;;;;;;;23.25;15.65;;;;;;;;;;5056415;28;20238;-79
2023/02/13 09:28:42;;;;;;;24.05;15.65;;;;;;;;;;5055221;28;20236;-79
2023/02/13 09:31:09;;;;;;;20.42;12.90;;;;;;;;;;5054638;28;20188;-80
2023/02/13 09:33:35;;;;;;;17.38;13.20;;;;;;;;;;5056309;28;20223;-80
2023/02/13 09:36:05;;;;;;;21.90;14.25;;;;;;;;;;5054459;28;20193;-80
2023/02/13 09:38:31;;;;;;;18.48;12.98;;;;;;;;;;5056207;28;20181;-80
2023/02/13 09:41:00;;;;;;;16.70;12.30;;;;;;;;;;5055871;28;20169;-80
2023/02/13 09:43:52;;;;;;;20.92;14.02;;;;;;;;;;5054523;28;20419;-80
2023/02/13 09:46:24;;;;;;;16.05;11.73;;;;;;;;;;5053497;28;20185;-80
2023/02/13 09:48:52;;;;;;;19.45;13.15;;;;;;;;;;5055402;28;20559;-80
2023/02/13 09:51:20;;;;;;;17.40;11.45;;;;;;;;;;5055094;28;20181;-80
2023/02/13 09:53:49;;;;;;;14.50;11.02;;;;;;;;;;5054161;28;20181;-80
2023/02/13 09:56:32;;;;;;;17.35;10.95;;;;;;;;;;5055035;28;20522;-80
2023/02/13 09:59:02;;;;;;;11.50;9.77;;;;;;;;;;5055064;28;20188;-80
2023/02/13 10:01:37;;;;;;;15.00;10.57;;;;;;;;;;5055407;28;20403;-80
2023/02/13 10:04:21;;;;;;;14.70;10.03;;;;;;;;;;5054949;28;20422;-80
2023/02/13 10:06:53;;;;;;;12.90;10.93;;;;;;;;;;5055092;28;20408;-80
2023/02/13 10:09:19;;;;;;;14.23;10.07;;;;;;;;;;5054588;28;20463;-80
2023/02/13 10:11:48;;;;;;;14.97;10.13;;;;;;;;;;5054961;28;20411;-80
2023/02/13 10:14:27;;;;;;;14.67;9.77;;;;;;;;;;5054511;28;20462;-80
2023/02/13 10:16:54;;;;;;;11.07;8.60;;;;;;;;;;5054931;28;20389;-80
2023/02/13 10:19:35;;;;;;;12.73;8.43;;;;;;;;;;5053086;28;20615;-80
2023/02/13 10:22:06;;;;;;;12.60;9.87;;;;;;;;;;5054694;28;20486;-80
2023/02/13 10:24:38;;;;;;;13.90;9.23;;;;;;;;;;5053231;28;20470;-80
2023/02/13 10:27:12;;;;;;;12.13;8.80;;;;;;;;;;5053246;28;20391;-81
2023/02/13 10:32:29;;;;;;;10.93;9.20;;;;;;;;;;5053952;28;20395;-80
2023/02/13 10:34:58;;;;;;;12.00;10.13;;;;;;;;;;5054634;28;20412;-80
2023/02/13 10:37:24;;;;;;;14.93;10.07;;;;;;;;;;5054066;28;20455;-80
2023/02/13 10:39:52;;;;;;;12.60;8.70;;;;;;;;;;5054173;28;20374;-80
2023/02/13 10:42:18;;;;;;;11.10;9.13;;;;;;;;;;5052455;28;20891;-80
2023/02/13 10:45:04;;;;;;;10.43;7.93;;;;;;;;;;5054357;28;20782;-79
2023/02/13 10:47:50;;;;;;;10.00;8.00;;;;;;;;;;5054346;28;20400;-80
2023/02/13 10:50:22;;;;;;;8.70;7.70;;;;;;;;;;5053849;28;20475;-80
2023/02/13 10:53:07;;;;;;;10.07;8.50;;;;;;;;;;5053789;28;20383;-80
2023/02/13 10:55:51;;;;;;;11.43;8.27;;;;;;;;;;5052763;28;20391;-80
2023/02/13 10:58:35;;;;;;;10.47;8.90;;;;;;;;;;5053632;28;20411;-79
2023/02/13 11:01:06;;;;;;;9.20;7.77;;;;;;;;;;5057015;28;20432;-79
2023/02/13 11:03:32;;;;;;;9.07;6.93;;;;;;;;;;5057739;28;20382;-79
2023/02/13 11:06:00;;;;;;;13.43;8.70;;;;;;;;;;5057017;28;20418;-80
2023/02/13 11:08:26;;;;;;;10.23;8.27;;;;;;;;;;5057537;28;20454;-79
2023/02/13 11:10:52;;;;;;;9.90;7.50;;;;;;;;;;5057052;28;20769;-79
2023/02/13 11:13:20;;;;;;;10.47;8.70;;;;;;;;;;5055980;28;20416;-79
2023/02/13 11:15:58;;;;;;;10.00;8.10;;;;;;;;;;5057402;28;20463;-79
2023/02/13 11:18:25;;;;;;;10.60;8.33;;;;;;;;;;5055895;28;20420;-79
2023/02/13 11:21:02;;;;;;;8.57;7.07;;;;;;;;;;5057473;28;20377;-79
2023/02/13 11:23:31;;;;;;;9.80;7.50;;;;;;;;;;5056566;28;20413;-79
2023/02/13 11:26:08;;;;;;;12.63;7.97;;;;;;;;;;5056983;28;20474;-78
2023/02/13 11:28:48;;;;;;;7.80;6.97;;;;;;;;;;5056986;28;20924;-77
2023/02/13 11:31:27;;;;;;;10.83;7.30;;;;;;;;;;5056621;28;20411;-77
2023/02/13 11:33:53;;;;;;;9.10;7.50;;;;;;;;;;5056723;28;20389;-78
2023/02/13 11:36:24;;;;;;;10.13;7.67;;;;;;;;;;5056431;28;20461;-78
2023/02/13 11:39:04;;;;;;;8.67;7.10;;;;;;;;;;5056535;28;20507;-78
2023/02/13 11:41:31;;;;;;;9.50;7.23;;;;;;;;;;5056177;28;20412;-78
2023/02/13 11:44:01;;;;;;;9.90;8.20;;;;;;;;;;5056538;28;20412;-77
2023/02/13 11:46:29;;;;;;;12.17;8.30;;;;;;;;;;5055907;28;20400;-77
2023/02/13 11:48:57;;;;;;;10.40;8.60;;;;;;;;;;5056149;28;20426;-77
2023/02/13 11:51:38;;;;;;;12.73;9.20;;;;;;;;;;5055658;28;20404;-77
2023/02/13 11:54:05;;;;;;;12.43;9.20;;;;;;;;;;5056020;28;20465;-77
2023/02/13 11:56:47;;;;;;;12.43;8.70;;;;;;;;;;5055742;28;20435;-77
2023/02/13 11:59:14;;;;;;;9.67;7.40;;;;;;;;;;5054417;28;20461;-77
2023/02/13 12:01:40;;;;;;;9.80;7.53;;;;;;;;;;5055812;28;20374;-77
2023/02/13 12:04:15;;;;;;;9.50;7.20;;;;;;;;;;5055863;28;20389;-77
2023/02/13 12:06:41;;;;;;;11.10;7.70;;;;;;;;;;5054584;28;20393;-77
2023/02/13 12:09:15;;;;;;;9.90;8.10;;;;;;;;;;5055658;28;20467;-77
2023/02/13 12:11:49;;;;;;;11.53;7.43;;;;;;;;;;5054633;28;20387;-77
2023/02/13 12:14:20;;;;;;;10.70;8.03;;;;;;;;;;5054884;28;20801;-77
2023/02/13 12:17:06;;;;;;;9.40;7.30;;;;;;;;;;5055887;28;20787;-77
2023/02/13 12:19:40;;;;;;;9.23;7.20;;;;;;;;;;5055387;28;20432;-77
2023/02/13 12:22:13;;;;;;;7.67;6.90;;;;;;;;;;5055326;28;20370;-77
2023/02/13 12:24:46;;;;;;;9.27;7.60;;;;;;;;;;5055340;28;20418;-77
2023/02/13 12:27:12;;;;;;;10.00;8.10;;;;;;;;;;5055316;28;20393;-77
2023/02/13 12:29:38;;;;;;;10.03;7.37;;;;;;;;;;5055319;28;20463;-76
2023/02/13 12:32:17;;;;;;;7.97;7.17;;;;;;;;;;5053853;28;20901;-76
2023/02/13 12:35:12;;;;;;;9.87;6.97;;;;;;;;;;5055215;28;20426;-76
2023/02/13 12:37:51;;;;;;;9.20;7.87;;;;;;;;;;5055443;28;20408;-76
2023/02/13 12:40:23;;;;;;;9.83;7.00;;;;;;;;;;5055211;28;20412;-76
2023/02/13 12:43:07;;;;;;;7.87;6.73;;;;;;;;;;5055226;28;20718;-77
2023/02/13 12:45:51;;;;;;;9.73;7.20;;;;;;;;;;5054815;28;20790;-76
2023/02/13 12:48:23;;;;;;;9.77;7.23;;;;;;;;;;5054974;28;20760;-76
2023/02/13 12:50:49;;;;;;;7.57;6.10;;;;;;;;;;5054912;28;20412;-77
2023/02/13 12:53:20;;;;;;;11.30;6.63;;;;;;;;;;5054364;28;20408;-76
2023/02/13 12:55:52;;;;;;;9.40;7.30;;;;;;;;;;5054965;28;20803;-76
2023/02/13 12:58:28;;;;;;;11.13;6.83;;;;;;;;;;5053206;28;20386;-76
2023/02/13 13:00:57;;;;;;;11.10;7.97;;;;;;;;;;5054638;28;20771;-76
2023/02/13 13:03:41;;;;;;;9.10;6.73;;;;;;;;;;5054231;28;20436;-77
2023/02/13 13:06:13;;;;;;;9.60;6.53;;;;;;;;;;5054493;28;20391;-76
2023/02/13 13:08:44;;;;;;;6.60;6.00;;;;;;;;;;5054352;28;20433;-76
2023/02/13 13:11:29;;;;;;;6.83;6.13;;;;;;;;;;5053125;28;20420;-77
2023/02/13 13:13:57;;;;;;;7.37;6.10;;;;;;;;;;5054157;28;20495;-77
2023/02/13 13:16:33;;;;;;;8.97;6.93;;;;;;;;;;5052805;28;20885;-77
2023/02/13 13:19:05;;;;;;;8.37;6.00;;;;;;;;;;5054435;28;20408;-77
2023/02/13 13:21:52;;;;;;;7.67;6.60;;;;;;;;;;5052722;28;20750;-76
2023/02/13 13:24:18;;;;;;;7.20;5.30;;;;;;;;;;5053696;28;20404;-77
2023/02/13 13:26:48;;;;;;;7.90;5.90;;;;;;;;;;5053894;28;20456;-77
2023/02/13 13:29:20;;;;;;;6.90;6.07;;;;;;;;;;5053837;28;20452;-80
2023/02/13 13:31:50;;;;;;;14.77;6.20;;;;;;;;;;5054140;28;20367;-77
2023/02/13 13:34:20;;;;;;;6.80;4.90;;;;;;;;;;5053352;28;20475;-77
2023/02/13 13:36:49;;;;;;;6.53;4.80;;;;;;;;;;5053711;28;20404;-76
2023/02/13 13:39:20;;;;;;;9.13;5.80;;;;;;;;;;5052168;28;20994;-77
2023/02/13 13:41:46;;;;;;;8.20;5.07;;;;;;;;;;5053950;28;20428;-77
2023/02/13 13:44:21;;;;;;;8.07;5.47;;;;;;;;;;5052501;28;20447;-77
2023/02/13 13:46:47;;;;;;;7.43;4.90;;;;;;;;;;5052744;28;20427;-77
2023/02/13 13:49:13;;;;;;;5.13;4.20;;;;;;;;;;5053724;28;20554;-77
2023/02/13 13:51:39;;;;;;;4.50;3.63;;;;;;;;;;5053133;28;20404;-77
2023/02/13 13:54:05;;;;;;;4.97;4.10;;;;;;;;;;5053356;28;20804;-77
2023/02/13 13:56:50;;;;;;;5.37;4.13;;;;;;;;;;5053638;28;20379;-77
2023/02/13 13:59:17;;;;;;;6.50;4.10;;;;;;;;;;5053321;28;20375;-79
2023/02/13 14:01:43;;;;;;;6.60;4.07;;;;;;;;;;5053412;28;20383;-77
2023/02/13 14:04:42;;;;;;;4.50;3.60;;;;;;;;;;5053389;28;20379;-77
2023/02/13 14:07:15;;;;;;;6.43;3.97;;;;;;;;;;5045518;28;20424;-77
2023/02/13 14:09:42;;;;;;;6.40;3.73;;;;;;;;;;5051592;28;20446;-77
2023/02/13 14:12:27;;;;;;;4.17;3.77;;;;;;;;;;5052011;28;20534;-77
2023/02/13 14:14:53;;;;;;;4.60;3.83;;;;;;;;;;5053175;28;20441;-77
2023/02/13 14:17:39;;;;;;;6.30;5.00;;;;;;;;;;5053190;28;20412;-77
2023/02/13 14:20:16;;;;;;;4.53;3.70;;;;;;;;;;5051944;28;20390;-77
2023/02/13 14:22:43;;;;;;;5.00;3.70;;;;;;;;;;5053220;28;20942;-77
2023/02/13 14:25:23;;;;;;;5.10;4.60;;;;;;;;;;5053477;28;20450;-77
2023/02/13 14:28:04;;;;;;;7.03;4.43;;;;;;;;;;5053069;28;20450;-77
2023/02/13 14:30:30;;;;;;;5.27;4.20;;;;;;;;;;5051552;28;20435;-77
2023/02/13 14:32:56;;;;;;;3.83;3.47;;;;;;;;;;5051759;28;20387;-77
2023/02/13 14:35:27;;;;;;;6.50;3.77;;;;;;;;;;5052067;28;20412;-77
2023/02/13 14:37:53;;;;;;;4.20;3.43;;;;;;;;;;5052880;28;20492;-77
2023/02/13 14:40:19;;;;;;;5.90;3.67;;;;;;;;;;5052566;28;20416;-78
2023/02/13 14:42:56;;;;;;;4.97;3.77;;;;;;;;;;5051763;28;20477;-77
2023/02/13 14:45:26;;;;;;;3.73;3.17;;;;;;;;;;5052752;28;20773;-77
2023/02/13 14:47:54;;;;;;;3.60;2.97;;;;;;;;;;5051558;28;20392;-77
2023/02/13 14:50:23;;;;;;;3.50;2.80;;;;;;;;;;5052580;28;20933;-78
2023/02/13 14:52:49;;;;;;;6.93;3.77;;;;;;;;;;5052719;28;20408;-77
2023/02/13 14:55:36;;;;;;;4.03;3.40;;;;;;;;;;5052789;28;20451;-77
2023/02/13 14:58:22;;;;;;;5.30;2.87;;;;;;;;;;5052800;28;20393;-77
2023/02/13 15:00:54;;;;;;;4.47;3.00;;;;;;;;;;5052412;28;20418;-77
2023/02/13 15:03:37;;;;;;;4.20;2.70;;;;;;;;;;5051416;28;20387;-78
2023/02/13 15:06:05;;;;;;;5.40;2.50;;;;;;;;;;5052725;28;20423;-77
2023/02/13 15:08:36;;;;;;;2.73;2.13;;;;;;;;;;5051125;28;20950;-77
2023/02/13 15:11:02;;;;;;;4.90;2.60;;;;;;;;;;5052398;28;20737;-77
2023/02/13 15:13:33;;;;;;;3.60;2.70;;;;;;;;;;5051721;28;20775;-78
2023/02/13 15:16:01;;;;;;;3.13;2.43;;;;;;;;;;5052671;28;20458;-77
2023/02/13 15:18:54;;;;;;;4.57;2.80;;;;;;;;;;5052594;28;20421;-77
2023/02/13 15:21:24;;;;;;;5.80;2.80;;;;;;;;;;5050660;28;20467;-81
2023/02/13 15:23:52;;;;;;;3.93;2.20;;;;;;;;;;5052489;28;20458;-77